Whale Point, California Weather observations

Data are for observation ending at time listed.
 Day   Time    Ave.   Ave.  Ave.  Vector   Max.   Stn.    Total    Solar   Ave.  
  of    of     Air    Rel.  Wind   Wind    Wind   Baro.  Precip.   Rad.    Soil  
Year   Day     Temp.  Hum.  Speed  Dir.    Gust   Pres.                    Temp. 
2026   (PST)    F      %     mph   deg.    mph     mb.     in.     W/m2     F   
------------------------------------------------------------------------------
 125    2:20   52.1    71    2.3    82      3.6   993.3    0.00    2905    64.8
 125    2:30   52.0    72    1.4   111      2.3   993.3    0.00    2902    64.8
 125    2:40   51.8    76    1.5   120      2.9   993.3    0.00    2888    64.7
 125    2:50   51.7    76    1.6    95      2.6   993.3    0.00    2884    64.7
 125    3:00   51.5    75    2.0    93      3.8   993.3    0.00    2867    64.6
 125    3:10   51.7    76    2.7    89      5.0   993.3    0.00    2876    64.6
 125    3:20   51.3    74    3.4    78      4.5   993.2    0.00    2919    64.5
 125    3:30   51.6    72    2.0    93      3.7   993.2    0.00    2909    64.5
 125    3:40   51.7    72    1.9   107      3.6   993.1    0.00    2915    64.4
 125    3:50   52.0    73    0.9   114      2.3   993.1    0.00    2902    64.3
 125    4:00   52.2    75    1.2    56      2.3   993.2    0.00    2879    64.3
 125    4:10   51.3    75    3.2    68      6.0   993.1    0.00    2874    64.3
 125    4:20   50.9    74    6.2    75      8.3   993.0    0.00    2929    64.2
 125    4:30   50.8    75    6.1    70      8.6   993.0    0.00    2951    64.1
 125    4:40   50.5    75    5.4    66      7.5   993.0    0.00    2955    64.1
 125    4:50   51.0    73    4.5    59      6.1   993.1    0.00    2980    64.1
 125    5:00   51.6    72    4.5    44      6.6   993.0    0.00    2999    64.0
 125    5:10   51.5    72    3.3    36      6.0   993.1    0.00    2978    64.0
 125    5:20   51.3    73    2.9    48      4.8   993.2    0.00    2988    63.9
 125    5:30   51.9    72    3.1    63      5.8   993.2    0.00    2990    63.8
 125    5:40   52.0    71    2.5    94      5.2   993.2    0.00    2981    63.8
 125    5:50   52.4    70    1.0   154      2.3   993.3    0.00    2952    63.8
 125    6:00   52.4    70    1.0    92      2.1   993.4    0.00    2899    63.7
 125    6:10   52.2    72    1.8    19      3.2   993.5    0.00    2843    63.7
 125    6:20   52.4    72    0.7    82      1.5   993.6    0.00    2814    63.6
 125    6:30   52.8    71    1.0    52      2.4   993.7    0.00    2774    63.6
 125    6:40   53.2    71    2.2    50      3.1   993.8    0.00    2729    63.5
 125    6:50   53.5    71    2.3    70      3.9   993.7    0.00    2687    63.4
 125    7:00   54.4    69    0.7   140      2.0   993.8    0.00    2604    63.4
 125    7:10   56.1    67    0.5   236      1.7   993.8    0.00    2430    63.3
 125    7:20   56.6    66    1.4   226      2.3   994.0    0.00    2174    63.3
 125    7:30   56.7    66    1.3   205      2.0   994.1    0.00    1883    63.2
 125    7:40   56.1    70    2.0   215      2.7   994.1    0.00    1748    63.2
 125    7:50   55.6    71    2.4   195      3.4   994.1    0.00    1640    63.2
 125    8:00   56.0    70    2.2   188      3.5   994.2    0.00    1530    63.2
 125    8:10   55.9    71    1.9   182      3.3   994.2    0.00    1491    63.2
 125    8:20   57.3    67    2.7   205      4.0   994.2    0.00    1375    63.2
 125    8:30   57.8    69    3.6   218      4.6   994.3    0.00    1129    63.1
 125    8:40   58.2    67    3.2   210      4.2   994.3    0.00     861    63.1
 125    8:50   57.5    70    3.4   223      4.8   994.4    0.00     763    63.1
 125    9:00   56.6    72    3.0   216      4.5   994.6    0.00     817    63.2
 125    9:10   56.8    72    3.8   215      5.5   994.5    0.00     861    63.2
 125    9:20   56.4    74    3.8   218      5.6   994.5    0.00     917    63.2
 125    9:30   56.4    72    2.7   214      5.4   994.6    0.00     964    63.2
 125    9:40   56.4    74    3.1   217      4.7   994.7    0.00    1009    63.2
 125    9:50   56.0    75    3.4   218      5.6   994.7    0.00    1085    63.2
 125   10:00   56.1    74    3.5   216      5.0   994.7    0.00    1139    63.3
 125   10:10   58.0    72    4.3   230      6.9   994.8    0.00    1129    63.2
 125   10:20   59.5    69    3.2   246      7.2   995.0    0.00     925    63.3
 125   10:30   59.5    70    2.6   220      7.3   995.1    0.00     788    63.3
 125   10:40   59.7    70    3.7   256      7.7   995.2    0.00     753    63.3
 125   10:50   60.8    69    2.7   272      8.2   995.3    0.00     677    63.4
 125   11:00   61.0    68    2.6   248      7.7   995.3    0.00     583    63.4
 125   11:10   59.6    72    3.4   308      8.7   995.4    0.00     627    63.5
 125   11:20   59.9    72    3.2   257      9.2   995.4    0.00     652    63.5
 125   11:30   59.8    71    3.9   250     11.0   995.3    0.00     616    63.6
 125   11:40   59.2    73    4.5   206      8.4   995.3    0.00     656    63.6
 125   11:50   59.6    70    2.9   281      8.5   995.3    0.00     656    63.7
 125   12:00   58.5    70    3.9   298      9.0   995.2    0.00     720    63.8
 125   12:10   56.9    73    6.3   303     12.4   995.2    0.00     841    63.9
 125   12:20   56.8    74    5.7   302     14.5   995.2    0.00     978    64.0
 125   12:30   58.5    73    3.7    17     12.1   995.1    0.00    1063    64.0
 125   12:40   58.1    73    5.1   298      8.8   995.1    0.00    1083    64.1
 125   12:50   57.5    74    6.0   320     13.2   995.1    0.00    1138    64.2
 125   13:00   57.7    72    5.0   295      9.9   995.2    0.00    1171    64.2
 125   13:10   58.0    72    3.6   292     10.7   995.2    0.00    1190    64.3
 125   13:20   59.9    69    4.3   264     10.2   995.2    0.00    1129    64.4
 125   13:30   60.6    67    4.3   264     11.0   995.2    0.00    1046    64.5
 125   13:40   60.5    68    4.9   244     14.3   995.1    0.00     957    64.6
 125   13:50   59.0    70    3.6   302     11.2   995.1    0.00     949    64.8
 125   14:00   58.1    72    5.7    24     20.0   995.0    0.00     983    64.9
 125   14:10   57.2    73    5.6   356     19.9   995.0    0.00    1063    65.0
 125   14:20   57.5    72    5.1    21     14.9   995.0    0.00    1164    65.1
 125   14:30   56.5    74    9.1     1     19.8   994.9    0.00    1263    65.2
 125   14:40   56.3    76    7.8     5     20.8   994.8    0.00    1365    65.3
 125   14:50   56.0    76    7.2   346     15.3   994.7    0.00    1467    65.4
 125   15:00   56.5    76    6.0     1     15.1   994.7    0.00    1532    65.5
 125   15:10   57.1    74    5.2     1     14.4   994.6    0.00    1566    65.6
 125   15:20   56.9    75    8.3   353     18.1   994.5    0.00    1595    65.7
 125   15:30   56.7    77    7.7   359     17.0   994.5    0.00    1638    65.8
 125   15:40   56.8    77    3.6   360      9.9   994.5    0.00    1667    65.9
 125   15:50   57.6    76    4.7    12     13.3   994.6    0.00    1648    65.9
 125   16:00   56.4    78    9.6   358     19.6   994.6    0.00    1647    66.0
 125   16:10   55.9    81   10.0   357     20.4   994.5    0.00    1692    66.1
 125   16:20   55.8    82    6.6     1     18.9   994.6    0.00    1743    66.1
 125   16:30   57.3    78    4.4   320      8.8   994.7    0.00    1741    66.2
 125   16:40   57.6    77    4.5   280     10.5   994.7    0.00    1710    66.2
 125   16:50   58.1    76    3.2   288      8.7   994.7    0.00    1649    66.3
 125   17:00   58.5    74    3.6   319      7.8   994.7    0.00    1572    66.3
 125   17:10   58.2    74    3.9   324      8.8   994.7    0.00    1525    66.3
 125   17:20   57.1    75    3.9   314      8.0   994.6    0.00    1518    66.4
 125   17:30   57.7    74    3.1   282     11.2   994.6    0.00    1560    66.5
 125   17:40   57.8    73    4.0   291      7.3   994.6    0.00    1588    66.5
 125   17:50   56.6    76    3.7   329      8.5   994.6    0.00    1625    66.5
 125   18:00   56.0    78    3.2   308      7.2   994.5    0.00    1699    66.6
 125   18:10   55.7    80    3.0   305      7.7   994.6    0.00    1783    66.6
 125   18:20   56.2    80    2.5   282      6.9   994.6    0.00    1849    66.7
 125   18:30   57.1    78    2.2   278      5.7   994.7    0.00    1897    66.7
 125   18:40   57.1    78    2.5   217      4.5   994.8    0.00    1925    66.7
 125   18:50   56.0    81    2.4   192      4.5   994.8    0.00    1923    66.7
 125   19:00   54.6    84    1.8   169      4.3   994.8    0.00    1969    66.7
 125   19:10   53.9    86    2.4   133      5.0   994.8    0.00    2033    66.7
 125   19:20   53.3    86    0.8   132      2.3   994.8    0.00    2146    66.8
 125   19:30   53.0    87    0.4   116      1.8   995.0    0.00    2254    66.8
 125   19:40   53.0    88    3.3    76      6.0   995.0    0.00    2402    66.7
 125   19:50   53.4    86    4.3    72      6.9   995.0    0.00    2547    66.7
 125   20:00   53.9    84    3.4    79      4.7   995.1    0.00    2623    66.7
 125   20:10   54.1    84    2.4   125      4.4   995.2    0.00    2662    66.7
 125   20:20   53.5    85    0.8   162      2.4   995.4    0.00    2701    66.6
 125   20:30   53.1    87    0.7   163      2.4   995.6    0.00    2745    66.6
 125   20:40   52.8    88    1.2   122      2.2   995.7    0.00    2798    66.6
 125   20:50   52.8    89    1.0   117      1.7   995.7    0.00    2853    66.5
 125   21:00   52.6    89    1.1    58      2.3   995.8    0.00    2872    66.5
 125   21:10   52.4    89    1.4    40      2.9   996.0    0.00    2899    66.4
 125   21:20   52.4    89    0.4    97      1.5   996.0    0.00    2981    66.3
 125   21:30   52.2    89    2.1    57      5.3   996.0    0.00    3019    66.3
 125   21:40   52.4    88    2.5    76      5.0   996.0    0.00    3038    66.2
 125   21:50   53.0    85    0.7   104      2.1   996.1    0.00    3061    66.1
 125   22:00   53.3    84    1.6    55      3.1   996.2    0.00    3009    66.1
 125   22:10   53.8    83    1.0    96      2.7   996.2    0.00    3009    66.0
 125   22:20   53.9    82    0.5   105      2.2   996.3    0.00    3005    66.0
 125   22:30   53.7    82    0.4   133      1.1   996.3    0.00    2985    65.9
 125   22:40   53.3    84    0.3   119      1.3   996.5    0.00    2963    65.9
 125   22:50   53.3    86    1.2    84      2.0   996.5    0.00    2958    65.8
 125   23:00   53.5    85    0.7    45      1.4   996.5    0.00    2940    65.7
 125   23:10   53.4    83    1.2    32      2.6   996.6    0.00    2965    65.7
 125   23:20   53.4    84    0.6    76      1.6   996.7    0.00    2962    65.6
 125   23:30   53.7    83    0.5    86      2.3   996.7    0.00    2967    65.5
 125   23:40   53.9    82    0.5    92      1.6   996.8    0.00    2978    65.5
 125   23:50   54.0    82    1.0   150      2.2   997.0    0.00    2982    65.4
 126    0:00   53.5    83    0.3    97      1.5   997.0    0.00    2934    65.3
 126    0:10   53.3    83    0.4    90      2.9   997.0    0.00    2908    65.3
 126    0:20   53.7    80    2.8    85      6.0   996.9    0.00    2950    65.2
 126    0:30   54.1    76    3.8    88      6.5   996.8    0.00    2947    65.1
 126    0:40   53.4    80    0.9   128      2.9   996.9    0.00    2903    65.1
 126    0:50   52.6    83    1.5   160      2.9   996.9    0.00    2853    65.0
 126    1:00   52.4    87    1.4   191      3.4   997.0    0.00    2873    64.9
 126    1:10   52.4    89    1.5    44      3.1   997.0    0.00    2875    64.9
 126    1:20   52.4    90    2.3    88      4.8   996.9    0.00    2909    64.8
 126    1:30   52.7    89    2.1   109      4.2   996.8    0.00    2926    64.8
 126    1:40   52.8    88    0.6    85      1.4   996.9    0.00    2912    64.7
 126    1:50   52.6    87    2.2    80      3.9   996.8    0.00    2883    64.7
 126    2:00   52.8    86    1.6   116      3.5   996.8    0.00    2904    64.6
 126    2:10   52.8    86    1.7   138      2.8   996.9    0.00    2877    64.5

Return to Whale Point graphs page.


Western Regional Climate Center,wrcc@dri.edu